createdAt,value
2022-09-01T00:01:27.410Z,63.53
2022-09-01T00:03:55.326Z,64.07
2022-09-01T00:06:24.014Z,64.89
2022-09-01T00:08:52.073Z,65.96
2022-09-01T00:11:20.109Z,66.32
2022-09-01T00:13:47.888Z,67.43
2022-09-01T00:16:16.672Z,68.69
2022-09-01T00:18:46.710Z,69.83
2022-09-01T00:21:14.096Z,70.70
2022-09-01T00:23:41.470Z,69.59
2022-09-01T00:26:09.123Z,70.52
2022-09-01T00:28:36.997Z,74.08
2022-09-01T00:31:05.019Z,75.33
2022-09-01T00:33:33.301Z,72.25
2022-09-01T00:36:00.998Z,73.04
2022-09-01T00:38:28.353Z,72.49
2022-09-01T00:40:56.115Z,71.81
2022-09-01T00:43:40.206Z,75.41
2022-09-01T00:46:09.672Z,74.08
2022-09-01T00:48:37.865Z,74.04
2022-09-01T00:51:06.234Z,71.98
2022-09-01T00:53:33.940Z,70.84
2022-09-01T00:56:02.185Z,72.59
2022-09-01T00:58:30.334Z,73.58
2022-09-01T01:00:57.974Z,70.74
2022-09-01T01:03:25.388Z,72.90
2022-09-01T01:05:58.014Z,71.41
2022-09-01T01:08:34.376Z,71.68
2022-09-01T01:11:17.868Z,70.67
2022-09-01T01:13:51.786Z,70.65
2022-09-01T01:16:19.293Z,72.31
2022-09-01T01:18:47.202Z,72.62
2022-09-01T01:21:45.426Z,70.39
2022-09-01T01:24:26.324Z,73.23
2022-09-01T01:26:54.290Z,70.90
2022-09-01T01:29:21.988Z,71.31
2022-09-01T01:31:53.253Z,75.11
2022-09-01T01:34:22.664Z,74.13
2022-09-01T01:36:50.600Z,74.63
2022-09-01T01:39:25.405Z,72.94
2022-09-01T01:41:54.241Z,73.39
2022-09-01T01:44:24.002Z,74.67
2022-09-01T01:46:52.293Z,74.87
2022-09-01T01:49:22.706Z,73.37
2022-09-01T01:51:57.856Z,72.67
2022-09-01T01:54:26.713Z,73.35
2022-09-01T01:56:55.712Z,73.49
2022-09-01T01:59:24.723Z,71.65
2022-09-01T02:01:52.945Z,71.61
2022-09-01T02:04:20.722Z,73.21
2022-09-01T02:06:48.566Z,73.23
2022-09-01T02:09:16.892Z,73.49
2022-09-01T02:11:45.591Z,73.15
2022-09-01T02:14:13.677Z,73.76
2022-09-01T02:16:41.367Z,73.83
2022-09-01T02:19:10.022Z,72.53
2022-09-01T02:21:44.615Z,72.89
2022-09-01T02:24:12.863Z,73.65
2022-09-01T02:26:43.046Z,73.41
2022-09-01T02:29:18.010Z,73.68
2022-09-01T02:31:47.022Z,75.54
2022-09-01T02:34:14.625Z,75.39
2022-09-01T02:36:47.613Z,74.93
2022-09-01T02:39:26.519Z,76.27
2022-09-01T02:41:54.598Z,75.76
2022-09-01T02:44:23.549Z,75.93
2022-09-01T02:46:50.964Z,76.45
2022-09-01T02:49:26.404Z,74.29
2022-09-01T02:51:58.061Z,76.04
2022-09-01T02:54:25.628Z,77.35
2022-09-01T02:56:54.512Z,77.74
2022-09-01T02:59:26.298Z,75.73
2022-09-01T03:01:54.124Z,76.50
2022-09-01T03:04:22.423Z,76.43
2022-09-01T03:06:54.942Z,75.55
2022-09-01T03:09:22.619Z,74.33
2022-09-01T03:11:51.488Z,73.34
2022-09-01T03:14:19.237Z,72.47
2022-09-01T03:16:46.714Z,71.94
2022-09-01T03:19:15.108Z,71.08
2022-09-01T03:21:43.502Z,73.32
2022-09-01T03:24:15.229Z,73.46
2022-09-01T03:26:43.416Z,72.95
2022-09-01T03:29:10.857Z,74.37
2022-09-01T03:31:38.394Z,76.44
2022-09-01T03:34:08.042Z,75.61
2022-09-01T03:36:36.118Z,74.07
2022-09-01T03:39:03.862Z,72.96
2022-09-01T03:41:31.802Z,74.51
2022-09-01T03:43:59.433Z,74.01
2022-09-01T03:46:27.659Z,75.17
2022-09-01T03:48:58.533Z,78.34
2022-09-01T03:51:27.127Z,78.46
2022-09-01T03:53:55.281Z,78.63
2022-09-01T03:56:24.706Z,78.43
2022-09-01T03:58:52.701Z,77.33
2022-09-01T04:01:20.444Z,76.46
2022-09-01T04:03:48.858Z,79.06
2022-09-01T04:06:19.438Z,80.49
2022-09-01T04:08:47.279Z,79.16
2022-09-01T04:11:18.704Z,78.97
2022-09-01T04:13:47.334Z,79.27
2022-09-01T04:16:41.651Z,78.27
2022-09-01T04:19:25.157Z,77.41
2022-09-01T04:21:55.090Z,75.98
2022-09-01T04:24:24.254Z,75.68
2022-09-01T04:26:52.439Z,75.10
2022-09-01T04:29:27.141Z,77.72
2022-09-01T04:32:02.627Z,86.85
2022-09-01T04:34:37.175Z,86.83
2022-09-01T04:37:08.850Z,86.31
2022-09-01T04:39:39.059Z,87.36
2022-09-01T04:42:09.136Z,86.10
2022-09-01T04:44:36.856Z,86.69
2022-09-01T04:47:10.899Z,85.79
2022-09-01T04:49:38.589Z,87.59
2022-09-01T04:52:05.948Z,84.82
2022-09-01T04:54:35.766Z,84.93
2022-09-01T04:57:04.612Z,80.08
2022-09-01T04:59:36.093Z,77.85
2022-09-01T05:02:07.820Z,77.21
2022-09-01T05:04:35.710Z,76.35
2022-09-01T05:07:03.963Z,75.02
2022-09-01T05:09:35.644Z,75.64
2022-09-01T05:12:12.365Z,76.84
2022-09-01T05:14:45.278Z,78.43
2022-09-01T05:17:12.951Z,80.38
2022-09-01T05:19:41.255Z,80.57
2022-09-01T05:22:10.275Z,80.92
2022-09-01T05:24:41.969Z,79.25
2022-09-01T05:27:12.240Z,78.29
2022-09-01T05:29:41.605Z,77.23
2022-09-01T05:32:12.634Z,78.79
2022-09-01T05:34:40.944Z,78.73
2022-09-01T05:37:08.822Z,77.13
2022-09-01T05:39:38.004Z,78.69
2022-09-01T05:42:08.282Z,76.91
2022-09-01T05:44:42.028Z,80.45
2022-09-01T05:47:20.305Z,80.59
2022-09-01T05:49:50.169Z,79.29
2022-09-01T05:52:17.947Z,80.17
2022-09-01T05:54:47.989Z,77.97
2022-09-01T05:57:33.949Z,76.62
2022-09-01T06:00:10.997Z,80.11
2022-09-01T06:02:41.132Z,78.97
2022-09-01T06:05:11.003Z,78.21
2022-09-01T06:07:40.885Z,78.24
2022-09-01T06:10:08.925Z,76.80
2022-09-01T06:12:36.728Z,77.71
2022-09-01T06:15:07.205Z,76.55
2022-09-01T06:17:36.857Z,76.52
2022-09-01T06:20:10.598Z,75.71
2022-09-01T06:22:38.926Z,75.36
2022-09-01T06:25:08.166Z,74.75
2022-09-01T06:27:41.266Z,75.28
2022-09-01T06:30:15.043Z,75.24
2022-09-01T06:32:44.336Z,73.47
2022-09-01T06:35:12.598Z,72.98
2022-09-01T06:37:40.098Z,72.73
2022-09-01T06:40:17.100Z,73.82
2022-09-01T06:42:47.231Z,73.79
2022-09-01T06:45:15.488Z,74.08
2022-09-01T06:47:47.261Z,74.66
2022-09-01T06:51:14.449Z,73.51
2022-09-01T06:55:58.601Z,71.50
2022-09-01T06:58:26.049Z,71.37
2022-09-01T07:00:53.974Z,72.17
2022-09-01T07:03:23.900Z,72.93
2022-09-01T07:06:09.641Z,73.63
2022-09-01T07:14:21.182Z,73.31
2022-09-01T07:16:52.454Z,73.74
2022-09-01T07:19:21.518Z,73.29
2022-09-01T07:24:37.683Z,72.95
2022-09-01T07:27:09.570Z,73.10
2022-09-01T07:29:39.454Z,72.21
2022-09-01T07:34:57.599Z,72.48
2022-09-01T07:43:17.431Z,71.05
2022-09-01T07:46:36.665Z,69.19
2022-09-01T07:49:02.633Z,69.61
2022-09-01T07:51:41.562Z,69.63
2022-09-01T07:54:13.597Z,68.77
2022-09-01T07:56:41.629Z,68.15
2022-09-01T07:59:14.572Z,66.67
2022-09-01T08:01:43.946Z,69.56
2022-09-01T08:04:11.826Z,65.35
2022-09-01T08:06:40.971Z,69.74
2022-09-01T08:09:11.974Z,68.80
2022-09-01T08:12:08.549Z,65.84
2022-09-01T08:14:38.020Z,67.37
2022-09-01T08:19:54.204Z,66.75
2022-09-01T08:22:24.209Z,66.18
2022-09-01T08:24:52.939Z,65.16
2022-09-01T08:27:21.086Z,64.26
2022-09-01T08:29:48.937Z,61.44
2022-09-01T08:32:16.384Z,61.37
2022-09-01T08:34:43.875Z,62.73
2022-09-01T08:37:12.250Z,60.57
2022-09-01T08:39:40.437Z,58.90
2022-09-01T08:42:10.675Z,59.83
2022-09-01T08:44:41.260Z,58.35
2022-09-01T08:47:15.396Z,58.99
2022-09-01T08:49:46.952Z,57.19
2022-09-01T08:52:37.099Z,57.19
2022-09-01T08:55:05.607Z,58.52
2022-09-01T08:57:37.801Z,57.00
2022-09-01T09:00:13.840Z,56.72
2022-09-01T09:03:02.878Z,56.87
2022-09-01T09:05:36.031Z,55.87
2022-09-01T09:08:06.833Z,53.72
2022-09-01T09:11:00.228Z,54.77
2022-09-01T09:13:36.789Z,55.32
2022-09-01T09:16:08.820Z,56.37
2022-09-01T09:18:55.788Z,57.00
2022-09-01T09:21:33.976Z,57.47
2022-09-01T09:24:10.586Z,57.02
2022-09-01T09:26:45.490Z,55.52
2022-09-01T09:29:12.923Z,56.37
2022-09-01T09:31:46.140Z,53.87
2022-09-01T09:34:36.721Z,53.64
2022-09-01T09:37:23.199Z,53.76
2022-09-01T09:40:11.110Z,53.30
2022-09-01T09:42:39.864Z,53.14
2022-09-01T09:45:23.090Z,51.57
2022-09-01T09:47:51.000Z,50.32
2022-09-01T09:50:21.058Z,49.20
2022-09-01T09:52:49.127Z,51.65
2022-09-01T09:55:27.692Z,51.86
2022-09-01T09:57:59.761Z,52.58
2022-09-01T10:00:29.742Z,50.68
2022-09-01T10:03:04.634Z,50.18
2022-09-01T10:05:50.231Z,50.77
2022-09-01T10:08:27.135Z,51.16
2022-09-01T10:10:58.265Z,51.09
2022-09-01T10:13:33.567Z,47.23
2022-09-01T10:16:08.985Z,46.64
2022-09-01T10:18:39.731Z,46.99
2022-09-01T10:21:11.384Z,42.37
2022-09-01T10:23:41.415Z,40.47
2022-09-01T10:26:14.979Z,39.51
2022-09-01T10:28:48.867Z,39.85
2022-09-01T10:31:17.569Z,40.44
2022-09-01T10:33:45.319Z,40.33
2022-09-01T10:36:12.696Z,40.56
2022-09-01T10:38:40.061Z,41.12
2022-09-01T10:41:08.730Z,42.22
2022-09-01T10:43:38.384Z,41.71
2022-09-01T10:46:39.297Z,41.28
2022-09-01T10:49:18.769Z,45.76
2022-09-01T10:51:56.437Z,44.42
2022-09-01T10:54:50.812Z,42.28
2022-09-01T10:57:18.824Z,43.81
2022-09-01T10:59:56.006Z,43.95
2022-09-01T11:02:26.715Z,44.55
2022-09-01T11:04:55.712Z,45.48
2022-09-01T11:07:33.546Z,44.04
2022-09-01T11:10:32.442Z,43.06
2022-09-01T11:13:32.558Z,42.24
2022-09-01T11:19:23.904Z,40.69
2022-09-01T11:22:26.890Z,41.29
2022-09-01T11:25:14.423Z,41.30
2022-09-01T11:27:48.138Z,41.78
2022-09-01T11:30:19.038Z,39.67
2022-09-01T11:32:48.075Z,39.76
2022-09-01T11:35:22.920Z,40.81
2022-09-01T11:37:52.049Z,44.77
2022-09-01T11:40:32.350Z,41.05
2022-09-01T11:43:04.518Z,40.61
2022-09-01T11:45:33.988Z,39.60
2022-09-01T11:48:03.519Z,41.28
2022-09-01T11:50:35.394Z,38.18
2022-09-01T11:53:08.079Z,40.14
2022-09-01T11:55:40.763Z,38.15
2022-09-01T11:58:30.866Z,38.17
2022-09-01T12:01:11.240Z,38.87
2022-09-01T12:03:39.142Z,38.40
2022-09-01T12:06:08.413Z,37.32
2022-09-01T12:08:37.670Z,39.13
2022-09-01T12:11:30.359Z,37.29
2022-09-01T12:14:01.500Z,38.69
2022-09-01T12:16:34.863Z,38.19
2022-09-01T12:19:02.308Z,37.01
2022-09-01T12:21:38.193Z,36.33
2022-09-01T12:24:16.563Z,38.11
2022-09-01T12:26:44.862Z,35.42
2022-09-01T12:29:13.821Z,37.38
2022-09-01T12:31:43.369Z,37.25
2022-09-01T12:34:36.921Z,36.11
2022-09-01T12:37:12.638Z,36.81
2022-09-01T12:39:44.971Z,38.18
2022-09-01T12:42:27.484Z,37.79
2022-09-01T12:44:59.917Z,36.68
2022-09-01T12:47:33.576Z,37.44
2022-09-01T12:50:05.551Z,39.04
2022-09-01T12:52:36.638Z,38.34
2022-09-01T12:55:06.867Z,39.17
2022-09-01T12:57:39.091Z,38.72
2022-09-01T13:00:10.144Z,40.12
2022-09-01T13:02:49.703Z,38.15
2022-09-01T13:05:39.442Z,39.52
2022-09-01T13:08:10.192Z,39.45
2022-09-01T13:10:39.717Z,37.63
2022-09-01T13:13:07.402Z,38.21
2022-09-01T13:15:35.458Z,37.33
2022-09-01T13:18:03.398Z,36.41
2022-09-01T13:20:30.836Z,34.78
2022-09-01T13:22:59.060Z,36.94
2022-09-01T13:25:27.110Z,34.48
2022-09-01T13:27:54.925Z,36.25
2022-09-01T13:30:28.527Z,35.54
2022-09-01T13:35:44.411Z,36.22
2022-09-01T13:38:16.027Z,35.65
2022-09-01T13:40:47.298Z,36.06
2022-09-01T13:43:16.017Z,36.72
2022-09-01T13:45:45.021Z,37.29
2022-09-01T13:48:16.639Z,35.42
2022-09-01T13:53:33.326Z,37.25
2022-09-01T13:56:00.980Z,34.94
2022-09-01T13:58:28.342Z,36.17
2022-09-01T14:00:57.392Z,35.33
2022-09-01T14:03:25.120Z,33.79
2022-09-01T14:05:52.536Z,34.23
2022-09-01T14:08:21.047Z,35.35
2022-09-01T14:10:50.808Z,35.83
2022-09-01T14:13:20.219Z,34.83
2022-09-01T14:15:48.353Z,34.06
2022-09-01T14:18:16.403Z,33.42
2022-09-01T14:20:46.599Z,33.86
2022-09-01T14:23:14.262Z,31.65
2022-09-01T14:25:46.663Z,32.72
2022-09-01T14:28:14.143Z,32.44
2022-09-01T14:30:44.149Z,33.69
2022-09-01T14:33:11.682Z,33.17
2022-09-01T14:35:40.162Z,34.76
2022-09-01T14:38:08.750Z,32.21
2022-09-01T14:40:37.867Z,32.27
2022-09-01T14:43:06.811Z,32.55
2022-09-01T14:45:34.449Z,32.22
2022-09-01T14:48:01.950Z,32.89
2022-09-01T14:50:32.543Z,31.91
2022-09-01T14:53:00.720Z,31.66
2022-09-01T14:55:29.924Z,32.51
2022-09-01T14:57:57.415Z,34.06
2022-09-01T15:00:25.313Z,33.30
2022-09-01T15:02:53.643Z,31.39
2022-09-01T15:05:21.092Z,29.47
2022-09-01T15:07:48.724Z,31.26
2022-09-01T15:10:25.107Z,30.22
2022-09-01T15:12:57.389Z,31.92
2022-09-01T15:15:25.213Z,32.91
2022-09-01T15:17:53.095Z,32.74
2022-09-01T15:20:38.980Z,34.27
2022-09-01T15:23:06.647Z,32.70
2022-09-01T15:25:34.236Z,33.40
2022-09-01T15:28:01.717Z,33.85
2022-09-01T15:30:29.356Z,31.74
2022-09-01T15:32:56.709Z,32.28
2022-09-01T15:35:24.282Z,32.73
2022-09-01T15:37:51.917Z,32.94
2022-09-01T15:40:19.530Z,32.72
2022-09-01T15:42:47.015Z,32.70
2022-09-01T15:45:16.633Z,34.30
2022-09-01T15:47:45.785Z,32.65
2022-09-01T15:50:21.027Z,33.66
2022-09-01T15:53:00.836Z,33.17
2022-09-01T15:55:30.500Z,35.67
2022-09-01T15:57:58.220Z,36.00
2022-09-01T16:00:26.705Z,35.01
2022-09-01T16:02:56.463Z,33.77
2022-09-01T16:05:25.201Z,35.26
2022-09-01T16:07:52.763Z,35.75
2022-09-01T16:10:20.700Z,34.38
2022-09-01T16:12:48.275Z,33.88
2022-09-01T16:15:16.619Z,35.57
2022-09-01T16:18:09.265Z,34.47
2022-09-01T16:20:39.441Z,33.10
2022-09-01T16:23:18.260Z,33.53
2022-09-01T16:25:45.845Z,34.59
2022-09-01T16:28:26.270Z,34.02
2022-09-01T16:30:56.382Z,34.67
2022-09-01T16:33:24.059Z,34.72
2022-09-01T16:36:03.152Z,32.76
2022-09-01T16:38:54.327Z,33.98
2022-09-01T16:41:50.073Z,33.37
2022-09-01T16:44:44.294Z,33.27
2022-09-01T16:47:25.917Z,34.08
2022-09-01T16:50:05.436Z,33.72
2022-09-01T16:53:01.023Z,36.56
2022-09-01T16:55:57.881Z,34.96
2022-09-01T16:58:43.441Z,37.64
2022-09-01T17:01:10.960Z,35.95
2022-09-01T17:04:09.416Z,36.91
2022-09-01T17:06:50.762Z,39.26
2022-09-01T17:09:58.572Z,39.88
2022-09-01T17:12:29.310Z,40.80
2022-09-01T17:15:12.704Z,40.47
2022-09-01T17:17:44.645Z,40.47
2022-09-01T17:20:14.509Z,41.19
2022-09-01T17:22:46.567Z,41.89
2022-09-01T17:25:21.881Z,41.81
2022-09-01T17:28:01.193Z,42.26
2022-09-01T17:30:31.623Z,42.43
2022-09-01T17:33:13.066Z,42.65
2022-09-01T17:36:09.114Z,43.32
2022-09-01T17:38:53.946Z,42.23
2022-09-01T17:41:34.259Z,42.74
2022-09-01T17:44:15.869Z,42.12
2022-09-01T17:46:46.267Z,42.65
2022-09-01T17:49:36.701Z,43.63
2022-09-01T17:52:04.073Z,42.46
2022-09-01T17:54:41.794Z,44.04
2022-09-01T17:57:15.118Z,43.83
2022-09-01T17:59:54.107Z,44.81
2022-09-01T18:02:36.564Z,45.36
2022-09-01T18:05:14.753Z,45.67
2022-09-01T18:08:01.041Z,45.73
2022-09-01T18:10:40.194Z,46.32
2022-09-01T18:13:10.867Z,46.21
2022-09-01T18:15:52.054Z,46.42
2022-09-01T18:18:44.347Z,47.01
2022-09-01T18:21:14.113Z,47.51
2022-09-01T18:23:44.639Z,48.55
2022-09-01T18:26:32.383Z,48.76
2022-09-01T18:29:01.189Z,48.57
2022-09-01T18:31:35.074Z,49.12
2022-09-01T18:34:38.146Z,48.99
2022-09-01T18:37:36.929Z,48.73
2022-09-01T18:40:26.269Z,48.82
2022-09-01T18:43:21.445Z,49.59
2022-09-01T18:45:55.842Z,49.59
2022-09-01T18:48:50.329Z,51.14
2022-09-01T18:51:34.475Z,50.45
2022-09-01T18:54:22.442Z,49.90
2022-09-01T18:56:53.109Z,49.76
2022-09-01T18:59:36.903Z,50.27
2022-09-01T19:02:26.690Z,50.55
2022-09-01T19:04:58.873Z,50.85
2022-09-01T19:07:43.639Z,51.11
2022-09-01T19:10:50.405Z,51.47
2022-09-01T19:13:36.976Z,51.16
2022-09-01T19:16:32.614Z,51.99
2022-09-01T19:19:24.891Z,52.45
2022-09-01T19:21:54.762Z,52.09
2022-09-01T19:24:42.499Z,52.78
2022-09-01T19:27:15.390Z,51.77
2022-09-01T19:29:47.212Z,52.08
2022-09-01T19:32:18.312Z,52.18
2022-09-01T19:34:51.325Z,52.43
2022-09-01T19:37:19.040Z,52.56
2022-09-01T19:39:48.865Z,51.85
2022-09-01T19:42:28.786Z,52.44
2022-09-01T19:45:07.214Z,52.02
2022-09-01T19:47:50.530Z,51.85
2022-09-01T19:50:38.189Z,52.38
2022-09-01T19:53:11.842Z,52.73
2022-09-01T19:55:49.269Z,52.66
2022-09-01T19:58:34.315Z,52.61
2022-09-01T20:01:03.240Z,53.34
2022-09-01T20:03:36.815Z,53.37
2022-09-01T20:06:32.165Z,53.99
2022-09-01T20:09:07.598Z,53.69
2022-09-01T20:11:43.946Z,53.53
2022-09-01T20:14:35.038Z,52.65
2022-09-01T20:17:04.544Z,53.07
2022-09-01T20:20:14.918Z,53.13
2022-09-01T20:22:51.165Z,53.54
2022-09-01T20:25:20.700Z,53.92
2022-09-01T20:27:56.144Z,53.67
2022-09-01T20:30:26.228Z,53.31
2022-09-01T20:32:58.410Z,54.00
2022-09-01T20:35:35.096Z,54.66
2022-09-01T20:38:42.736Z,54.66
2022-09-01T20:41:26.077Z,54.42
2022-09-01T20:43:53.836Z,55.04
2022-09-01T20:46:21.725Z,55.31
2022-09-01T20:48:49.228Z,55.02
2022-09-01T20:51:38.020Z,54.94
2022-09-01T20:54:26.972Z,55.86
2022-09-01T20:57:17.207Z,55.69
2022-09-01T20:59:48.826Z,55.76
2022-09-01T21:02:37.488Z,56.07
2022-09-01T21:05:28.153Z,56.58
2022-09-01T21:08:40.605Z,55.47
2022-09-01T21:11:50.586Z,55.90
2022-09-01T21:14:24.009Z,56.16
2022-09-01T21:17:14.038Z,57.37
2022-09-01T21:20:06.016Z,57.24
2022-09-01T21:22:33.822Z,56.33
2022-09-01T21:25:01.188Z,57.25
2022-09-01T21:27:33.169Z,57.11
2022-09-01T21:30:16.673Z,58.31
2022-09-01T21:32:44.040Z,57.71
2022-09-01T21:35:15.667Z,58.90
2022-09-01T21:37:43.086Z,59.25
2022-09-01T21:40:11.197Z,58.54
2022-09-01T21:42:45.576Z,58.37
2022-09-01T21:45:15.058Z,58.02
2022-09-01T21:47:43.462Z,58.30
2022-09-01T21:50:11.043Z,57.48
2022-09-01T21:52:38.469Z,57.70
2022-09-01T21:55:06.986Z,58.37
2022-09-01T21:57:35.434Z,57.90
2022-09-01T22:00:09.825Z,57.20
2022-09-01T22:02:42.360Z,57.50
2022-09-01T22:05:10.468Z,57.43
2022-09-01T22:07:40.369Z,56.84
2022-09-01T22:10:09.317Z,57.10
2022-09-01T22:12:37.242Z,52.47
2022-09-01T22:15:06.348Z,53.85
2022-09-01T22:17:33.813Z,55.28
2022-09-01T22:20:02.341Z,56.01
2022-09-01T22:22:29.738Z,49.79
2022-09-01T22:24:57.102Z,48.34
2022-09-01T22:27:24.758Z,46.67
2022-09-01T22:29:52.547Z,45.54
2022-09-01T22:32:23.083Z,45.03
2022-09-01T22:34:50.977Z,46.05
2022-09-01T22:37:18.809Z,49.60
2022-09-01T22:39:46.154Z,44.76
2022-09-01T22:42:13.762Z,44.20
2022-09-01T22:44:41.121Z,43.49
2022-09-01T22:47:08.452Z,44.16
2022-09-01T22:49:36.664Z,42.94
2022-09-01T22:52:04.578Z,44.43
2022-09-01T22:54:31.943Z,43.85
2022-09-01T22:57:01.882Z,43.84
2022-09-01T22:59:29.282Z,45.46
2022-09-01T23:01:56.718Z,45.56
2022-09-01T23:04:24.975Z,41.83
2022-09-01T23:06:52.589Z,42.69
2022-09-01T23:09:20.293Z,41.76
2022-09-01T23:11:47.999Z,41.49
2022-09-01T23:14:15.441Z,45.01
2022-09-01T23:16:42.881Z,43.01
2022-09-01T23:19:10.672Z,42.59
2022-09-01T23:21:38.330Z,41.45
2022-09-01T23:24:05.962Z,45.48
2022-09-01T23:26:34.781Z,44.27
2022-09-01T23:29:02.408Z,43.02
2022-09-01T23:31:32.195Z,40.88
2022-09-01T23:33:59.889Z,41.31
2022-09-01T23:36:27.794Z,40.37
2022-09-01T23:38:55.480Z,38.74
2022-09-01T23:41:26.926Z,40.88
2022-09-01T23:43:54.317Z,42.56
2022-09-01T23:46:23.991Z,42.34
2022-09-01T23:48:51.767Z,41.16
2022-09-01T23:51:19.373Z,40.90
2022-09-01T23:53:47.133Z,40.67
2022-09-01T23:56:16.581Z,40.31
2022-09-01T23:58:44.156Z,39.89
